sensor_id;sensor_type;location;lat;lon;timestamp;temperature;humidity
44833;DHT22;30569;51.252;9.830;2023-05-19T00:01:56;6.70;99.90
44833;DHT22;30569;51.252;9.830;2023-05-19T00:04:24;6.30;99.90
44833;DHT22;30569;51.252;9.830;2023-05-19T00:06:51;6.40;99.90
44833;DHT22;30569;51.252;9.830;2023-05-19T00:09:18;6.20;99.90
44833;DHT22;30569;51.252;9.830;2023-05-19T00:11:44;6.20;99.90
44833;DHT22;30569;51.252;9.830;2023-05-19T00:14:10;6.30;99.90
44833;DHT22;30569;51.252;9.830;2023-05-19T00:16:36;6.00;99.90
44833;DHT22;30569;51.252;9.830;2023-05-19T00:19:05;5.50;99.90
44833;DHT22;30569;51.252;9.830;2023-05-19T00:23:57;5.40;99.90
44833;DHT22;30569;51.252;9.830;2023-05-19T00:26:23;5.50;99.90
44833;DHT22;30569;51.252;9.830;2023-05-19T00:28:49;5.70;99.90
44833;DHT22;30569;51.252;9.830;2023-05-19T00:36:07;5.30;99.90
44833;DHT22;30569;51.252;9.830;2023-05-19T00:38:34;5.50;99.90
44833;DHT22;30569;51.252;9.830;2023-05-19T00:41:01;5.50;99.90
44833;DHT22;30569;51.252;9.830;2023-05-19T00:45:54;5.40;99.90
44833;DHT22;30569;51.252;9.830;2023-05-19T00:50:47;4.90;99.90
44833;DHT22;30569;51.252;9.830;2023-05-19T00:53:13;5.10;99.90
44833;DHT22;30569;51.252;9.830;2023-05-19T00:55:41;4.90;99.90
44833;DHT22;30569;51.252;9.830;2023-05-19T00:58:09;4.80;99.90
44833;DHT22;30569;51.252;9.830;2023-05-19T01:00:35;5.10;99.90
44833;DHT22;30569;51.252;9.830;2023-05-19T01:03:01;4.90;99.90
44833;DHT22;30569;51.252;9.830;2023-05-19T01:07:54;5.00;99.90
44833;DHT22;30569;51.252;9.830;2023-05-19T01:10:21;5.00;99.90
44833;DHT22;30569;51.252;9.830;2023-05-19T01:15:13;5.30;99.90
44833;DHT22;30569;51.252;9.830;2023-05-19T01:17:49;4.80;99.90
44833;DHT22;30569;51.252;9.830;2023-05-19T01:20:28;5.00;99.90
44833;DHT22;30569;51.252;9.830;2023-05-19T01:28:30;5.00;99.90
44833;DHT22;30569;51.252;9.830;2023-05-19T01:30:59;5.00;99.90
44833;DHT22;30569;51.252;9.830;2023-05-19T01:33:26;4.70;99.90
44833;DHT22;30569;51.252;9.830;2023-05-19T01:35:54;5.00;99.90
44833;DHT22;30569;51.252;9.830;2023-05-19T01:38:21;4.70;99.90
44833;DHT22;30569;51.252;9.830;2023-05-19T01:40:49;4.60;99.90
44833;DHT22;30569;51.252;9.830;2023-05-19T01:43:18;4.70;99.90
44833;DHT22;30569;51.252;9.830;2023-05-19T01:45:44;4.70;99.90
44833;DHT22;30569;51.252;9.830;2023-05-19T01:48:10;4.80;99.90
44833;DHT22;30569;51.252;9.830;2023-05-19T01:50:37;4.70;99.90
44833;DHT22;30569;51.252;9.830;2023-05-19T01:53:03;4.80;99.90
44833;DHT22;30569;51.252;9.830;2023-05-19T01:55:28;4.60;99.90
44833;DHT22;30569;51.252;9.830;2023-05-19T01:58:16;4.50;99.90
44833;DHT22;30569;51.252;9.830;2023-05-19T02:09:24;4.00;99.90
44833;DHT22;30569;51.252;9.830;2023-05-19T02:14:38;4.00;99.90
44833;DHT22;30569;51.252;9.830;2023-05-19T02:17:04;4.30;99.90
44833;DHT22;30569;51.252;9.830;2023-05-19T02:19:32;4.30;99.90
44833;DHT22;30569;51.252;9.830;2023-05-19T02:21:59;4.30;99.90
44833;DHT22;30569;51.252;9.830;2023-05-19T02:24:25;4.40;99.90
44833;DHT22;30569;51.252;9.830;2023-05-19T02:26:51;4.40;99.90
44833;DHT22;30569;51.252;9.830;2023-05-19T02:29:20;4.50;99.90
44833;DHT22;30569;51.252;9.830;2023-05-19T02:31:46;4.70;99.90
44833;DHT22;30569;51.252;9.830;2023-05-19T02:36:40;4.50;99.90
44833;DHT22;30569;51.252;9.830;2023-05-19T02:39:07;4.30;99.90
44833;DHT22;30569;51.252;9.830;2023-05-19T02:41:33;4.00;99.90
44833;DHT22;30569;51.252;9.830;2023-05-19T02:43:59;4.00;99.90
44833;DHT22;30569;51.252;9.830;2023-05-19T02:46:24;3.90;99.90
44833;DHT22;30569;51.252;9.830;2023-05-19T02:51:16;3.90;99.90
44833;DHT22;30569;51.252;9.830;2023-05-19T02:53:42;3.90;99.90
44833;DHT22;30569;51.252;9.830;2023-05-19T02:56:07;3.40;99.90
44833;DHT22;30569;51.252;9.830;2023-05-19T02:58:33;3.60;99.90
44833;DHT22;30569;51.252;9.830;2023-05-19T03:03:25;3.80;99.90
44833;DHT22;30569;51.252;9.830;2023-05-19T03:05:51;4.00;99.90
44833;DHT22;30569;51.252;9.830;2023-05-19T03:08:18;4.10;99.90
44833;DHT22;30569;51.252;9.830;2023-05-19T03:10:47;4.20;99.90
44833;DHT22;30569;51.252;9.830;2023-05-19T03:13:12;3.70;99.90
44833;DHT22;30569;51.252;9.830;2023-05-19T03:18:04;3.90;99.90
44833;DHT22;30569;51.252;9.830;2023-05-19T03:20:31;4.00;99.90
44833;DHT22;30569;51.252;9.830;2023-05-19T03:22:56;4.10;99.90
44833;DHT22;30569;51.252;9.830;2023-05-19T03:25:22;3.80;99.90
44833;DHT22;30569;51.252;9.830;2023-05-19T03:27:48;3.80;99.90
44833;DHT22;30569;51.252;9.830;2023-05-19T03:30:13;4.10;99.90
44833;DHT22;30569;51.252;9.830;2023-05-19T03:32:39;3.80;99.90
44833;DHT22;30569;51.252;9.830;2023-05-19T03:39:58;4.20;99.90
44833;DHT22;30569;51.252;9.830;2023-05-19T03:42:24;4.30;99.90
44833;DHT22;30569;51.252;9.830;2023-05-19T03:44:49;4.40;99.90
44833;DHT22;30569;51.252;9.830;2023-05-19T03:47:16;4.20;99.90
44833;DHT22;30569;51.252;9.830;2023-05-19T03:52:07;4.40;99.90
44833;DHT22;30569;51.252;9.830;2023-05-19T03:54:34;4.70;99.90
44833;DHT22;30569;51.252;9.830;2023-05-19T03:57:00;4.80;99.90
44833;DHT22;30569;51.252;9.830;2023-05-19T04:01:52;5.00;99.90
44833;DHT22;30569;51.252;9.830;2023-05-19T04:04:18;5.30;99.90
44833;DHT22;30569;51.252;9.830;2023-05-19T04:06:43;5.60;99.90
44833;DHT22;30569;51.252;9.830;2023-05-19T04:09:11;5.80;99.90
44833;DHT22;30569;51.252;9.830;2023-05-19T04:11:38;5.80;99.90
44833;DHT22;30569;51.252;9.830;2023-05-19T04:14:04;6.20;99.90
44833;DHT22;30569;51.252;9.830;2023-05-19T04:16:30;6.20;99.90
44833;DHT22;30569;51.252;9.830;2023-05-19T04:18:55;6.30;99.90
44833;DHT22;30569;51.252;9.830;2023-05-19T04:21:21;6.60;99.90
44833;DHT22;30569;51.252;9.830;2023-05-19T04:23:47;6.50;99.90
44833;DHT22;30569;51.252;9.830;2023-05-19T04:28:39;6.70;99.90
44833;DHT22;30569;51.252;9.830;2023-05-19T04:31:06;7.00;99.90
44833;DHT22;30569;51.252;9.830;2023-05-19T04:33:38;6.90;99.90
44833;DHT22;30569;51.252;9.830;2023-05-19T04:36:05;7.30;99.90
44833;DHT22;30569;51.252;9.830;2023-05-19T04:38:36;7.60;99.90
44833;DHT22;30569;51.252;9.830;2023-05-19T04:41:02;7.50;99.90
44833;DHT22;30569;51.252;9.830;2023-05-19T04:43:28;7.80;99.90
44833;DHT22;30569;51.252;9.830;2023-05-19T04:45:54;7.80;99.90
44833;DHT22;30569;51.252;9.830;2023-05-19T04:48:20;8.10;99.90
44833;DHT22;30569;51.252;9.830;2023-05-19T04:50:46;8.20;99.90
44833;DHT22;30569;51.252;9.830;2023-05-19T04:53:13;8.20;99.90
44833;DHT22;30569;51.252;9.830;2023-05-19T04:55:39;8.40;99.90
44833;DHT22;30569;51.252;9.830;2023-05-19T04:58:05;8.60;99.90
44833;DHT22;30569;51.252;9.830;2023-05-19T05:00:31;8.60;99.90
44833;DHT22;30569;51.252;9.830;2023-05-19T05:02:57;8.90;99.90
44833;DHT22;30569;51.252;9.830;2023-05-19T05:05:23;8.90;99.90
44833;DHT22;30569;51.252;9.830;2023-05-19T05:07:49;9.00;99.90
44833;DHT22;30569;51.252;9.830;2023-05-19T05:12:41;9.50;99.90
44833;DHT22;30569;51.252;9.830;2023-05-19T05:15:07;10.00;99.90
44833;DHT22;30569;51.252;9.830;2023-05-19T05:17:33;9.90;99.90
44833;DHT22;30569;51.252;9.830;2023-05-19T05:20:00;9.70;99.90
44833;DHT22;30569;51.252;9.830;2023-05-19T05:22:26;10.00;99.90
44833;DHT22;30569;51.252;9.830;2023-05-19T05:24:52;10.20;99.90
44833;DHT22;30569;51.252;9.830;2023-05-19T05:27:18;10.10;99.90
44833;DHT22;30569;51.252;9.830;2023-05-19T05:29:44;10.60;99.90
44833;DHT22;30569;51.252;9.830;2023-05-19T05:32:09;10.50;99.90
44833;DHT22;30569;51.252;9.830;2023-05-19T05:34:35;10.30;99.90
44833;DHT22;30569;51.252;9.830;2023-05-19T05:37:02;10.30;99.90
44833;DHT22;30569;51.252;9.830;2023-05-19T05:39:27;10.30;99.90
44833;DHT22;30569;51.252;9.830;2023-05-19T05:41:53;10.40;99.90
44833;DHT22;30569;51.252;9.830;2023-05-19T05:44:19;10.70;99.90
44833;DHT22;30569;51.252;9.830;2023-05-19T05:46:45;10.80;99.90
44833;DHT22;30569;51.252;9.830;2023-05-19T05:49:10;11.20;99.90
44833;DHT22;30569;51.252;9.830;2023-05-19T05:51:38;11.10;99.90
44833;DHT22;30569;51.252;9.830;2023-05-19T05:54:05;11.70;99.90
44833;DHT22;30569;51.252;9.830;2023-05-19T05:56:32;12.10;99.90
44833;DHT22;30569;51.252;9.830;2023-05-19T05:59:01;12.00;99.90
44833;DHT22;30569;51.252;9.830;2023-05-19T06:01:27;12.30;99.90
44833;DHT22;30569;51.252;9.830;2023-05-19T06:03:54;12.60;99.90
44833;DHT22;30569;51.252;9.830;2023-05-19T06:06:20;12.50;99.90
44833;DHT22;30569;51.252;9.830;2023-05-19T06:08:45;13.10;99.90
44833;DHT22;30569;51.252;9.830;2023-05-19T06:11:11;13.20;99.80
44833;DHT22;30569;51.252;9.830;2023-05-19T06:13:37;13.50;99.50
44833;DHT22;30569;51.252;9.830;2023-05-19T06:16:03;13.40;97.00
44833;DHT22;30569;51.252;9.830;2023-05-19T06:18:29;13.60;96.80
44833;DHT22;30569;51.252;9.830;2023-05-19T06:20:55;13.90;96.00
44833;DHT22;30569;51.252;9.830;2023-05-19T06:23:20;14.10;96.20
44833;DHT22;30569;51.252;9.830;2023-05-19T06:25:46;14.50;94.80
44833;DHT22;30569;51.252;9.830;2023-05-19T06:28:11;14.40;94.90
44833;DHT22;30569;51.252;9.830;2023-05-19T06:30:37;14.70;94.20
44833;DHT22;30569;51.252;9.830;2023-05-19T06:33:03;15.00;94.10
44833;DHT22;30569;51.252;9.830;2023-05-19T06:35:29;15.20;93.20
44833;DHT22;30569;51.252;9.830;2023-05-19T06:37:55;15.50;92.00
44833;DHT22;30569;51.252;9.830;2023-05-19T06:40:21;15.60;91.90
44833;DHT22;30569;51.252;9.830;2023-05-19T06:42:47;15.50;92.90
44833;DHT22;30569;51.252;9.830;2023-05-19T06:45:13;15.50;91.30
44833;DHT22;30569;51.252;9.830;2023-05-19T06:47:38;15.60;91.60
44833;DHT22;30569;51.252;9.830;2023-05-19T06:50:08;15.50;91.60
44833;DHT22;30569;51.252;9.830;2023-05-19T06:52:34;15.50;91.10
44833;DHT22;30569;51.252;9.830;2023-05-19T06:54:59;16.30;90.20
44833;DHT22;30569;51.252;9.830;2023-05-19T06:57:25;16.50;90.10
44833;DHT22;30569;51.252;9.830;2023-05-19T06:59:50;16.80;87.20
44833;DHT22;30569;51.252;9.830;2023-05-19T07:02:16;17.20;87.10
44833;DHT22;30569;51.252;9.830;2023-05-19T07:04:41;17.70;85.30
44833;DHT22;30569;51.252;9.830;2023-05-19T07:07:07;17.50;84.80
44833;DHT22;30569;51.252;9.830;2023-05-19T07:09:33;17.50;84.20
44833;DHT22;30569;51.252;9.830;2023-05-19T07:11:58;17.30;84.60
44833;DHT22;30569;51.252;9.830;2023-05-19T07:14:24;17.10;85.30
44833;DHT22;30569;51.252;9.830;2023-05-19T07:16:50;17.10;86.70
44833;DHT22;30569;51.252;9.830;2023-05-19T07:19:15;17.00;86.30
44833;DHT22;30569;51.252;9.830;2023-05-19T07:21:43;17.00;86.70
44833;DHT22;30569;51.252;9.830;2023-05-19T07:24:09;16.60;87.10
44833;DHT22;30569;51.252;9.830;2023-05-19T07:26:34;16.90;86.00
44833;DHT22;30569;51.252;9.830;2023-05-19T07:29:00;17.00;89.20
44833;DHT22;30569;51.252;9.830;2023-05-19T07:31:25;17.30;85.60
44833;DHT22;30569;51.252;9.830;2023-05-19T07:33:51;18.20;85.90
44833;DHT22;30569;51.252;9.830;2023-05-19T07:36:16;18.70;80.90
44833;DHT22;30569;51.252;9.830;2023-05-19T07:38:42;19.70;79.00
44833;DHT22;30569;51.252;9.830;2023-05-19T07:41:08;20.30;77.20
44833;DHT22;30569;51.252;9.830;2023-05-19T07:43:33;20.40;73.10
44833;DHT22;30569;51.252;9.830;2023-05-19T07:45:59;20.50;73.30
44833;DHT22;30569;51.252;9.830;2023-05-19T07:48:25;21.40;75.00
44833;DHT22;30569;51.252;9.830;2023-05-19T07:50:51;21.30;71.70
44833;DHT22;30569;51.252;9.830;2023-05-19T07:53:18;21.50;74.10
44833;DHT22;30569;51.252;9.830;2023-05-19T07:55:44;21.90;70.30
44833;DHT22;30569;51.252;9.830;2023-05-19T07:58:09;22.30;69.00
44833;DHT22;30569;51.252;9.830;2023-05-19T08:00:35;22.50;69.60
44833;DHT22;30569;51.252;9.830;2023-05-19T08:03:01;23.20;69.00
44833;DHT22;30569;51.252;9.830;2023-05-19T08:05:27;22.50;67.60
44833;DHT22;30569;51.252;9.830;2023-05-19T08:07:54;22.60;68.80
44833;DHT22;30569;51.252;9.830;2023-05-19T08:10:20;23.30;66.80
44833;DHT22;30569;51.252;9.830;2023-05-19T08:12:45;23.00;65.90
44833;DHT22;30569;51.252;9.830;2023-05-19T08:17:37;22.70;64.90
44833;DHT22;30569;51.252;9.830;2023-05-19T08:20:03;22.80;67.20
44833;DHT22;30569;51.252;9.830;2023-05-19T08:22:30;21.70;69.00
44833;DHT22;30569;51.252;9.830;2023-05-19T08:27:22;22.50;65.30
44833;DHT22;30569;51.252;9.830;2023-05-19T08:29:48;24.00;68.00
44833;DHT22;30569;51.252;9.830;2023-05-19T08:34:40;20.40;68.40
44833;DHT22;30569;51.252;9.830;2023-05-19T08:37:06;20.00;71.20
44833;DHT22;30569;51.252;9.830;2023-05-19T08:39:32;20.40;75.40
44833;DHT22;30569;51.252;9.830;2023-05-19T08:44:25;18.70;71.40
44833;DHT22;30569;51.252;9.830;2023-05-19T08:46:53;19.00;72.20
44833;DHT22;30569;51.252;9.830;2023-05-19T08:49:22;19.70;73.20
44833;DHT22;30569;51.252;9.830;2023-05-19T08:52:02;19.80;71.00
44833;DHT22;30569;51.252;9.830;2023-05-19T08:54:36;20.30;67.50
44833;DHT22;30569;51.252;9.830;2023-05-19T08:57:06;20.30;70.10
44833;DHT22;30569;51.252;9.830;2023-05-19T08:59:32;19.60;71.20
44833;DHT22;30569;51.252;9.830;2023-05-19T09:01:58;19.00;72.90
44833;DHT22;30569;51.252;9.830;2023-05-19T09:04:25;18.80;73.50
44833;DHT22;30569;51.252;9.830;2023-05-19T09:06:52;18.70;73.50
44833;DHT22;30569;51.252;9.830;2023-05-19T09:09:18;18.80;73.90
44833;DHT22;30569;51.252;9.830;2023-05-19T09:11:45;18.30;75.60
44833;DHT22;30569;51.252;9.830;2023-05-19T09:14:11;17.30;74.10
44833;DHT22;30569;51.252;9.830;2023-05-19T09:19:02;17.60;79.20
44833;DHT22;30569;51.252;9.830;2023-05-19T09:21:32;17.80;75.40
44833;DHT22;30569;51.252;9.830;2023-05-19T09:24:04;17.40;73.40
44833;DHT22;30569;51.252;9.830;2023-05-19T09:26:40;17.40;74.60
44833;DHT22;30569;51.252;9.830;2023-05-19T09:29:16;17.50;77.90
44833;DHT22;30569;51.252;9.830;2023-05-19T09:31:52;17.80;74.90
44833;DHT22;30569;51.252;9.830;2023-05-19T09:34:19;18.30;75.30
44833;DHT22;30569;51.252;9.830;2023-05-19T09:36:46;18.60;74.50
44833;DHT22;30569;51.252;9.830;2023-05-19T09:39:17;18.20;75.70
44833;DHT22;30569;51.252;9.830;2023-05-19T09:41:43;18.00;70.70
44833;DHT22;30569;51.252;9.830;2023-05-19T09:44:27;19.30;68.30
44833;DHT22;30569;51.252;9.830;2023-05-19T09:46:57;20.00;68.90
44833;DHT22;30569;51.252;9.830;2023-05-19T09:49:27;19.30;68.40
44833;DHT22;30569;51.252;9.830;2023-05-19T09:51:54;18.90;66.80
44833;DHT22;30569;51.252;9.830;2023-05-19T09:54:22;18.90;68.70
44833;DHT22;30569;51.252;9.830;2023-05-19T09:57:01;18.90;70.90
44833;DHT22;30569;51.252;9.830;2023-05-19T09:59:28;18.60;73.40
44833;DHT22;30569;51.252;9.830;2023-05-19T10:01:55;18.50;70.60
44833;DHT22;30569;51.252;9.830;2023-05-19T10:04:28;19.40;70.60
44833;DHT22;30569;51.252;9.830;2023-05-19T10:06:55;22.20;71.80
44833;DHT22;30569;51.252;9.830;2023-05-19T10:09:25;19.40;64.40
44833;DHT22;30569;51.252;9.830;2023-05-19T10:11:51;19.40;65.10
44833;DHT22;30569;51.252;9.830;2023-05-19T10:14:25;18.70;68.00
44833;DHT22;30569;51.252;9.830;2023-05-19T10:16:53;17.80;71.40
44833;DHT22;30569;51.252;9.830;2023-05-19T10:19:21;18.40;76.00
44833;DHT22;30569;51.252;9.830;2023-05-19T10:21:47;18.10;69.70
44833;DHT22;30569;51.252;9.830;2023-05-19T10:24:15;18.20;73.00
44833;DHT22;30569;51.252;9.830;2023-05-19T10:26:44;17.80;71.30
44833;DHT22;30569;51.252;9.830;2023-05-19T10:29:12;18.40;76.30
44833;DHT22;30569;51.252;9.830;2023-05-19T10:34:22;19.20;69.40
44833;DHT22;30569;51.252;9.830;2023-05-19T10:39:33;18.90;66.30
44833;DHT22;30569;51.252;9.830;2023-05-19T10:45:35;18.20;69.40
44833;DHT22;30569;51.252;9.830;2023-05-19T10:47:34;18.20;67.40
44833;DHT22;30569;51.252;9.830;2023-05-19T10:50:00;18.30;72.90
44833;DHT22;30569;51.252;9.830;2023-05-19T10:52:26;18.60;71.80
44833;DHT22;30569;51.252;9.830;2023-05-19T10:54:54;19.00;69.20
44833;DHT22;30569;51.252;9.830;2023-05-19T10:57:25;19.00;66.80
44833;DHT22;30569;51.252;9.830;2023-05-19T10:59:56;19.00;71.90
44833;DHT22;30569;51.252;9.830;2023-05-19T11:02:42;19.40;68.10
44833;DHT22;30569;51.252;9.830;2023-05-19T11:05:15;19.60;68.80
44833;DHT22;30569;51.252;9.830;2023-05-19T11:07:57;20.00;72.90
44833;DHT22;30569;51.252;9.830;2023-05-19T11:10:29;19.60;70.30
44833;DHT22;30569;51.252;9.830;2023-05-19T11:12:56;19.50;70.00
44833;DHT22;30569;51.252;9.830;2023-05-19T11:15:25;19.80;72.50
44833;DHT22;30569;51.252;9.830;2023-05-19T11:17:52;20.00;70.60
44833;DHT22;30569;51.252;9.830;2023-05-19T11:20:23;20.20;71.40
44833;DHT22;30569;51.252;9.830;2023-05-19T11:25:48;20.50;71.50
44833;DHT22;30569;51.252;9.830;2023-05-19T11:28:18;20.40;70.00
44833;DHT22;30569;51.252;9.830;2023-05-19T11:30:46;20.50;69.10
44833;DHT22;30569;51.252;9.830;2023-05-19T11:33:14;20.80;71.70
44833;DHT22;30569;51.252;9.830;2023-05-19T11:35:47;20.50;73.50
44833;DHT22;30569;51.252;9.830;2023-05-19T11:38:16;20.60;71.30
44833;DHT22;30569;51.252;9.830;2023-05-19T11:40:43;20.20;65.60
44833;DHT22;30569;51.252;9.830;2023-05-19T11:43:09;20.10;69.80
44833;DHT22;30569;51.252;9.830;2023-05-19T11:45:34;20.10;69.40
44833;DHT22;30569;51.252;9.830;2023-05-19T11:48:00;19.90;66.00
44833;DHT22;30569;51.252;9.830;2023-05-19T11:50:27;20.00;66.10
44833;DHT22;30569;51.252;9.830;2023-05-19T11:52:53;19.70;71.60
44833;DHT22;30569;51.252;9.830;2023-05-19T11:55:20;19.60;70.90
44833;DHT22;30569;51.252;9.830;2023-05-19T11:57:58;19.60;72.30
44833;DHT22;30569;51.252;9.830;2023-05-19T12:00:29;19.40;68.80
44833;DHT22;30569;51.252;9.830;2023-05-19T12:02:56;19.60;68.90
44833;DHT22;30569;51.252;9.830;2023-05-19T12:05:23;19.40;68.70
44833;DHT22;30569;51.252;9.830;2023-05-19T12:07:49;19.70;68.20
44833;DHT22;30569;51.252;9.830;2023-05-19T12:10:23;20.00;72.80
44833;DHT22;30569;51.252;9.830;2023-05-19T12:12:50;19.90;69.50
44833;DHT22;30569;51.252;9.830;2023-05-19T12:15:20;19.50;71.20
44833;DHT22;30569;51.252;9.830;2023-05-19T12:17:50;19.50;71.00
44833;DHT22;30569;51.252;9.830;2023-05-19T12:20:20;19.00;70.10
44833;DHT22;30569;51.252;9.830;2023-05-19T12:22:47;19.00;69.60
44833;DHT22;30569;51.252;9.830;2023-05-19T12:25:14;18.30;69.80
44833;DHT22;30569;51.252;9.830;2023-05-19T12:27:42;18.30;70.40
44833;DHT22;30569;51.252;9.830;2023-05-19T12:30:08;18.40;70.40
44833;DHT22;30569;51.252;9.830;2023-05-19T12:32:35;18.60;73.80
44833;DHT22;30569;51.252;9.830;2023-05-19T12:35:04;18.80;71.50
44833;DHT22;30569;51.252;9.830;2023-05-19T12:37:31;18.90;70.00
44833;DHT22;30569;51.252;9.830;2023-05-19T12:39:58;19.20;72.30
44833;DHT22;30569;51.252;9.830;2023-05-19T12:42:26;19.20;69.20
44833;DHT22;30569;51.252;9.830;2023-05-19T12:44:56;19.10;72.90
44833;DHT22;30569;51.252;9.830;2023-05-19T12:47:22;19.00;68.00
44833;DHT22;30569;51.252;9.830;2023-05-19T12:49:59;19.10;72.10
44833;DHT22;30569;51.252;9.830;2023-05-19T12:52:26;19.40;69.70
44833;DHT22;30569;51.252;9.830;2023-05-19T12:55:02;19.70;74.70
44833;DHT22;30569;51.252;9.830;2023-05-19T12:57:36;19.80;69.20
44833;DHT22;30569;51.252;9.830;2023-05-19T13:00:03;19.20;67.00
44833;DHT22;30569;51.252;9.830;2023-05-19T13:02:33;19.20;68.20
44833;DHT22;30569;51.252;9.830;2023-05-19T13:04:58;19.00;72.50
44833;DHT22;30569;51.252;9.830;2023-05-19T13:07:24;18.90;69.50
44833;DHT22;30569;51.252;9.830;2023-05-19T13:09:50;18.70;74.40
44833;DHT22;30569;51.252;9.830;2023-05-19T13:12:15;19.00;74.60
44833;DHT22;30569;51.252;9.830;2023-05-19T13:17:08;18.40;71.60
44833;DHT22;30569;51.252;9.830;2023-05-19T13:19:33;18.30;72.20
44833;DHT22;30569;51.252;9.830;2023-05-19T13:21:59;18.40;72.70
44833;DHT22;30569;51.252;9.830;2023-05-19T13:24:24;18.60;74.60
44833;DHT22;30569;51.252;9.830;2023-05-19T13:26:50;18.70;75.30
44833;DHT22;30569;51.252;9.830;2023-05-19T13:29:16;18.80;71.20
44833;DHT22;30569;51.252;9.830;2023-05-19T13:31:41;18.70;71.70
44833;DHT22;30569;51.252;9.830;2023-05-19T13:34:07;18.80;72.00
44833;DHT22;30569;51.252;9.830;2023-05-19T13:36:32;18.90;72.70
44833;DHT22;30569;51.252;9.830;2023-05-19T13:38:59;18.60;69.80
44833;DHT22;30569;51.252;9.830;2023-05-19T13:41:25;18.50;70.20
44833;DHT22;30569;51.252;9.830;2023-05-19T13:43:57;18.10;73.60
44833;DHT22;30569;51.252;9.830;2023-05-19T13:56:07;18.90;70.40
44833;DHT22;30569;51.252;9.830;2023-05-19T13:58:32;18.60;73.30
44833;DHT22;30569;51.252;9.830;2023-05-19T14:00:58;18.50;74.70
44833;DHT22;30569;51.252;9.830;2023-05-19T14:03:25;18.30;71.60
44833;DHT22;30569;51.252;9.830;2023-05-19T14:05:51;18.20;69.70
44833;DHT22;30569;51.252;9.830;2023-05-19T14:08:17;18.70;70.10
44833;DHT22;30569;51.252;9.830;2023-05-19T14:10:45;19.00;68.00
44833;DHT22;30569;51.252;9.830;2023-05-19T14:13:11;19.00;69.50
44833;DHT22;30569;51.252;9.830;2023-05-19T14:15:37;18.70;67.20
44833;DHT22;30569;51.252;9.830;2023-05-19T14:18:02;18.50;72.90
44833;DHT22;30569;51.252;9.830;2023-05-19T14:20:28;18.70;73.60
44833;DHT22;30569;51.252;9.830;2023-05-19T14:25:20;18.40;68.20
44833;DHT22;30569;51.252;9.830;2023-05-19T14:27:45;18.50;73.60
44833;DHT22;30569;51.252;9.830;2023-05-19T14:30:11;18.90;72.70
44833;DHT22;30569;51.252;9.830;2023-05-19T14:32:37;19.10;69.90
44833;DHT22;30569;51.252;9.830;2023-05-19T14:35:03;19.10;71.20
44833;DHT22;30569;51.252;9.830;2023-05-19T14:37:28;19.10;72.50
44833;DHT22;30569;51.252;9.830;2023-05-19T14:39:56;19.10;72.60
44833;DHT22;30569;51.252;9.830;2023-05-19T14:42:22;19.00;71.60
44833;DHT22;30569;51.252;9.830;2023-05-19T14:44:48;18.60;70.30
44833;DHT22;30569;51.252;9.830;2023-05-19T14:47:13;18.80;70.50
44833;DHT22;30569;51.252;9.830;2023-05-19T14:49:39;18.50;74.90
44833;DHT22;30569;51.252;9.830;2023-05-19T14:52:05;18.70;75.90
44833;DHT22;30569;51.252;9.830;2023-05-19T14:54:30;19.00;71.50
44833;DHT22;30569;51.252;9.830;2023-05-19T14:56:56;18.90;69.40
44833;DHT22;30569;51.252;9.830;2023-05-19T14:59:21;18.90;74.00
44833;DHT22;30569;51.252;9.830;2023-05-19T15:01:47;18.90;74.50
44833;DHT22;30569;51.252;9.830;2023-05-19T15:04:13;18.40;71.30
44833;DHT22;30569;51.252;9.830;2023-05-19T15:06:38;18.40;70.70
44833;DHT22;30569;51.252;9.830;2023-05-19T15:09:04;18.20;69.30
44833;DHT22;30569;51.252;9.830;2023-05-19T15:11:29;18.30;70.80
44833;DHT22;30569;51.252;9.830;2023-05-19T15:13:56;18.10;71.20
44833;DHT22;30569;51.252;9.830;2023-05-19T15:16:21;18.00;70.70
44833;DHT22;30569;51.252;9.830;2023-05-19T15:18:47;18.10;70.00
44833;DHT22;30569;51.252;9.830;2023-05-19T15:21:12;18.00;75.90
44833;DHT22;30569;51.252;9.830;2023-05-19T15:23:38;18.20;70.10
44833;DHT22;30569;51.252;9.830;2023-05-19T15:26:04;18.10;71.50
44833;DHT22;30569;51.252;9.830;2023-05-19T15:28:29;17.90;68.70
44833;DHT22;30569;51.252;9.830;2023-05-19T15:30:55;18.00;74.10
44833;DHT22;30569;51.252;9.830;2023-05-19T15:33:20;18.10;72.50
44833;DHT22;30569;51.252;9.830;2023-05-19T15:35:46;18.20;69.40
44833;DHT22;30569;51.252;9.830;2023-05-19T15:38:16;18.20;72.40
44833;DHT22;30569;51.252;9.830;2023-05-19T15:40:43;18.30;68.30
44833;DHT22;30569;51.252;9.830;2023-05-19T15:43:08;18.40;72.40
44833;DHT22;30569;51.252;9.830;2023-05-19T15:45:34;18.20;69.10
44833;DHT22;30569;51.252;9.830;2023-05-19T15:47:59;18.20;71.30
44833;DHT22;30569;51.252;9.830;2023-05-19T15:50:25;18.40;69.90
44833;DHT22;30569;51.252;9.830;2023-05-19T15:52:51;18.00;69.00
44833;DHT22;30569;51.252;9.830;2023-05-19T15:55:16;17.80;69.20
44833;DHT22;30569;51.252;9.830;2023-05-19T15:57:42;17.80;74.00
44833;DHT22;30569;51.252;9.830;2023-05-19T16:00:08;18.00;70.70
44833;DHT22;30569;51.252;9.830;2023-05-19T16:02:34;18.00;70.50
44833;DHT22;30569;51.252;9.830;2023-05-19T16:05:00;17.90;71.60
44833;DHT22;30569;51.252;9.830;2023-05-19T16:07:25;18.00;72.50
44833;DHT22;30569;51.252;9.830;2023-05-19T16:09:51;17.90;72.10
44833;DHT22;30569;51.252;9.830;2023-05-19T16:12:17;18.00;70.50
44833;DHT22;30569;51.252;9.830;2023-05-19T16:14:42;17.90;73.20
44833;DHT22;30569;51.252;9.830;2023-05-19T16:17:08;17.90;73.70
44833;DHT22;30569;51.252;9.830;2023-05-19T16:19:36;17.80;69.90
44833;DHT22;30569;51.252;9.830;2023-05-19T16:22:02;17.80;69.90
44833;DHT22;30569;51.252;9.830;2023-05-19T16:24:28;17.90;68.00
44833;DHT22;30569;51.252;9.830;2023-05-19T16:26:53;17.80;69.10
44833;DHT22;30569;51.252;9.830;2023-05-19T16:29:19;17.50;68.00
44833;DHT22;30569;51.252;9.830;2023-05-19T16:31:44;17.70;71.60
44833;DHT22;30569;51.252;9.830;2023-05-19T16:34:10;17.50;68.00
44833;DHT22;30569;51.252;9.830;2023-05-19T16:36:35;17.40;68.30
44833;DHT22;30569;51.252;9.830;2023-05-19T16:39:01;17.60;70.80
44833;DHT22;30569;51.252;9.830;2023-05-19T16:41:27;17.70;72.40
44833;DHT22;30569;51.252;9.830;2023-05-19T16:43:54;17.40;74.90
44833;DHT22;30569;51.252;9.830;2023-05-19T16:46:20;17.30;71.20
44833;DHT22;30569;51.252;9.830;2023-05-19T16:48:45;17.60;71.30
44833;DHT22;30569;51.252;9.830;2023-05-19T16:51:11;17.70;72.50
44833;DHT22;30569;51.252;9.830;2023-05-19T16:53:36;17.70;75.60
44833;DHT22;30569;51.252;9.830;2023-05-19T16:56:04;17.50;68.90
44833;DHT22;30569;51.252;9.830;2023-05-19T16:58:30;17.30;72.10
44833;DHT22;30569;51.252;9.830;2023-05-19T17:00:55;17.30;69.20
44833;DHT22;30569;51.252;9.830;2023-05-19T17:03:22;17.30;71.40
44833;DHT22;30569;51.252;9.830;2023-05-19T17:05:47;17.40;69.50
44833;DHT22;30569;51.252;9.830;2023-05-19T17:08:13;17.20;71.10
44833;DHT22;30569;51.252;9.830;2023-05-19T17:10:38;17.80;69.00